Time;durP1;ratioP1;P1;durP2;ratioP2;P2;SDS_P1;SDS_P2;PMS_P1;PMS_P2;Temp;Humidity;BMP_temperature;BMP_pressure;BME280_temperature;BME280_humidity;BME280_pressure;Samples;Min_cycle;Max_cycle;Signal;HPM_P1;HPM_P2
2023/05/31 00:01:01;;;;;;;9.93;6.38;;;;;;;;;;5021858;28;21757;-71
2023/05/31 00:03:27;;;;;;;12.68;5.90;;;;;;;;;;5027342;28;20186;-71
2023/05/31 00:05:52;;;;;;;11.25;5.95;;;;;;;;;;5026202;28;20186;-71
2023/05/31 00:08:18;;;;;;;10.93;6.50;;;;;;;;;;5028467;28;20244;-71
2023/05/31 00:10:44;;;;;;;10.00;6.07;;;;;;;;;;5026722;28;20284;-71
2023/05/31 00:13:09;;;;;;;15.50;6.85;;;;;;;;;;5027675;28;20232;-71
2023/05/31 00:15:35;;;;;;;14.68;7.10;;;;;;;;;;5023456;28;20629;-71
2023/05/31 00:18:00;;;;;;;11.85;6.93;;;;;;;;;;5027023;28;20234;-71
2023/05/31 00:20:25;;;;;;;12.27;6.65;;;;;;;;;;5022240;28;20194;-71
2023/05/31 00:22:51;;;;;;;12.93;6.93;;;;;;;;;;5019244;28;20198;-71
2023/05/31 00:25:16;;;;;;;12.30;6.75;;;;;;;;;;5028898;28;20178;-71
2023/05/31 00:27:42;;;;;;;12.00;6.63;;;;;;;;;;5025082;28;20248;-71
2023/05/31 00:30:07;;;;;;;13.55;6.47;;;;;;;;;;5025864;28;20183;-71
2023/05/31 00:32:33;;;;;;;13.18;6.40;;;;;;;;;;5045565;28;20194;-71
2023/05/31 00:34:58;;;;;;;12.57;6.82;;;;;;;;;;5034659;28;20255;-71
2023/05/31 00:37:24;;;;;;;12.90;7.25;;;;;;;;;;5052012;28;20177;-71
2023/05/31 00:39:49;;;;;;;12.20;6.38;;;;;;;;;;5034698;28;20239;-71
2023/05/31 00:42:14;;;;;;;14.40;6.88;;;;;;;;;;5033443;28;20201;-71
2023/05/31 00:44:40;;;;;;;12.30;6.65;;;;;;;;;;5037808;28;20190;-71
2023/05/31 00:47:06;;;;;;;12.95;7.13;;;;;;;;;;5045497;28;20197;-71
2023/05/31 00:49:32;;;;;;;12.57;7.38;;;;;;;;;;5046955;28;20193;-72
2023/05/31 00:51:58;;;;;;;12.18;7.05;;;;;;;;;;5031036;28;20193;-72
2023/05/31 00:54:23;;;;;;;11.27;7.03;;;;;;;;;;5033240;28;20744;-71
2023/05/31 00:56:49;;;;;;;12.88;7.10;;;;;;;;;;5029495;28;20189;-71
2023/05/31 00:59:15;;;;;;;9.23;6.03;;;;;;;;;;5047317;28;20193;-71
2023/05/31 01:01:41;;;;;;;11.00;6.57;;;;;;;;;;5033052;28;20251;-71
2023/05/31 01:04:08;;;;;;;10.85;6.63;;;;;;;;;;5029261;28;20668;-71
2023/05/31 01:06:34;;;;;;;13.02;6.93;;;;;;;;;;5024224;28;20183;-71
2023/05/31 01:09:05;;;;;;;12.15;7.60;;;;;;;;;;5028476;28;20317;-72
2023/05/31 01:11:53;;;;;;;14.35;7.05;;;;;;;;;;5027451;28;20220;-71
2023/05/31 01:14:36;;;;;;;11.20;7.15;;;;;;;;;;5025444;28;20267;-72
2023/05/31 01:17:23;;;;;;;15.05;7.35;;;;;;;;;;5031017;28;20322;-71
2023/05/31 01:19:53;;;;;;;16.00;7.72;;;;;;;;;;5029863;28;20558;-72
2023/05/31 01:22:50;;;;;;;13.75;6.93;;;;;;;;;;5020261;28;20188;-72
2023/05/31 01:25:46;;;;;;;13.45;7.78;;;;;;;;;;5018117;28;20205;-72
2023/05/31 01:28:14;;;;;;;14.00;7.75;;;;;;;;;;5028272;28;20236;-71
2023/05/31 01:30:39;;;;;;;11.88;7.30;;;;;;;;;;5034318;28;20629;-71
2023/05/31 01:33:10;;;;;;;13.20;7.38;;;;;;;;;;5027375;28;20316;-72
2023/05/31 01:35:35;;;;;;;12.73;7.03;;;;;;;;;;5030358;28;20272;-72
2023/05/31 01:38:01;;;;;;;13.15;8.20;;;;;;;;;;5031760;28;20328;-72
2023/05/31 01:40:26;;;;;;;13.63;7.65;;;;;;;;;;5033908;28;21358;-72
2023/05/31 01:42:52;;;;;;;15.50;8.02;;;;;;;;;;5026525;28;20198;-72
2023/05/31 01:45:19;;;;;;;15.05;8.27;;;;;;;;;;5045026;28;20181;-72
2023/05/31 01:47:47;;;;;;;14.20;7.93;;;;;;;;;;5027202;28;20654;-72
2023/05/31 01:50:13;;;;;;;14.13;8.75;;;;;;;;;;5046370;28;20189;-72
2023/05/31 01:52:39;;;;;;;13.30;7.97;;;;;;;;;;5035633;28;20198;-72
2023/05/31 01:55:05;;;;;;;12.98;7.55;;;;;;;;;;5021439;28;20237;-72
2023/05/31 01:57:32;;;;;;;12.80;7.43;;;;;;;;;;5045036;28;20649;-72
2023/05/31 02:00:01;;;;;;;15.25;8.35;;;;;;;;;;5034790;28;20190;-71
2023/05/31 02:02:27;;;;;;;14.95;7.70;;;;;;;;;;5027982;28;20559;-71
2023/05/31 02:05:11;;;;;;;13.45;7.55;;;;;;;;;;5040696;28;20193;-74
2023/05/31 02:07:41;;;;;;;15.23;8.70;;;;;;;;;;5015445;28;20202;-72
2023/05/31 02:10:07;;;;;;;17.60;8.82;;;;;;;;;;5028035;28;20218;-72
2023/05/31 02:12:32;;;;;;;14.38;7.93;;;;;;;;;;5026376;28;20340;-72
2023/05/31 02:14:58;;;;;;;15.32;8.48;;;;;;;;;;5017211;28;20575;-72
2023/05/31 02:17:24;;;;;;;17.98;8.35;;;;;;;;;;5026254;28;20197;-72
2023/05/31 02:19:53;;;;;;;17.20;7.95;;;;;;;;;;5027122;28;20261;-72
2023/05/31 02:22:20;;;;;;;14.77;7.60;;;;;;;;;;5015995;28;20196;-72
2023/05/31 02:24:46;;;;;;;13.68;7.60;;;;;;;;;;5018640;28;20189;-72
2023/05/31 02:27:12;;;;;;;14.05;7.85;;;;;;;;;;5023668;28;20776;-72
2023/05/31 02:29:37;;;;;;;16.63;8.30;;;;;;;;;;5034799;28;20190;-72
2023/05/31 02:32:03;;;;;;;12.93;7.72;;;;;;;;;;5034674;28;20220;-72
2023/05/31 02:34:28;;;;;;;17.40;8.65;;;;;;;;;;5044564;28;20209;-72
2023/05/31 02:36:54;;;;;;;18.05;7.97;;;;;;;;;;5045739;28;20194;-72
2023/05/31 02:39:19;;;;;;;15.13;7.53;;;;;;;;;;5028891;28;20218;-72
2023/05/31 02:41:45;;;;;;;15.65;7.93;;;;;;;;;;5019025;28;20642;-72
2023/05/31 02:44:10;;;;;;;17.02;7.47;;;;;;;;;;5028609;28;20747;-72
2023/05/31 02:46:36;;;;;;;16.13;8.15;;;;;;;;;;5025159;28;20182;-72
2023/05/31 02:49:02;;;;;;;15.95;8.45;;;;;;;;;;5039435;28;20647;-72
2023/05/31 02:51:27;;;;;;;18.17;8.07;;;;;;;;;;5028402;28;20273;-72
2023/05/31 02:53:53;;;;;;;14.27;8.27;;;;;;;;;;5021204;28;20276;-73
2023/05/31 02:56:19;;;;;;;13.77;7.93;;;;;;;;;;5037739;28;20213;-73
2023/05/31 02:58:45;;;;;;;15.73;7.78;;;;;;;;;;5022538;28;20206;-71
2023/05/31 03:01:10;;;;;;;13.98;7.55;;;;;;;;;;5027588;28;20689;-71
2023/05/31 03:03:35;;;;;;;16.42;8.35;;;;;;;;;;5025208;28;20264;-72
2023/05/31 03:06:01;;;;;;;21.60;8.95;;;;;;;;;;5025680;28;20225;-72
2023/05/31 03:08:27;;;;;;;15.68;8.48;;;;;;;;;;5021075;28;20186;-72
2023/05/31 03:10:52;;;;;;;19.25;8.85;;;;;;;;;;5020409;28;20236;-72
2023/05/31 03:13:17;;;;;;;20.73;9.65;;;;;;;;;;5019431;28;20281;-72
2023/05/31 03:15:44;;;;;;;15.68;9.25;;;;;;;;;;5024446;28;20664;-72
2023/05/31 03:18:10;;;;;;;17.27;8.95;;;;;;;;;;5039350;28;20190;-72
2023/05/31 03:20:35;;;;;;;16.60;9.18;;;;;;;;;;5017157;28;20244;-72
2023/05/31 03:23:01;;;;;;;18.30;9.82;;;;;;;;;;5024407;28;20194;-72
2023/05/31 03:25:26;;;;;;;20.55;9.88;;;;;;;;;;5014637;28;20205;-73
2023/05/31 03:27:52;;;;;;;23.65;9.98;;;;;;;;;;5018312;28;20201;-72
2023/05/31 03:30:17;;;;;;;22.02;10.30;;;;;;;;;;5037276;28;20225;-72
2023/05/31 03:32:42;;;;;;;20.52;10.65;;;;;;;;;;5021270;28;20193;-72
2023/05/31 03:35:08;;;;;;;25.38;11.30;;;;;;;;;;5027089;28;20246;-72
2023/05/31 03:37:34;;;;;;;28.17;12.05;;;;;;;;;;5038166;28;20785;-72
2023/05/31 03:39:59;;;;;;;25.85;12.10;;;;;;;;;;5027037;28;20225;-72
2023/05/31 03:42:25;;;;;;;26.02;12.02;;;;;;;;;;5009928;28;20265;-72
2023/05/31 03:44:50;;;;;;;27.65;11.95;;;;;;;;;;5025568;28;20186;-72
2023/05/31 03:47:16;;;;;;;32.25;13.15;;;;;;;;;;5036476;28;20197;-70
2023/05/31 03:49:41;;;;;;;29.13;12.15;;;;;;;;;;5032599;28;20576;-72
2023/05/31 03:52:08;;;;;;;26.70;12.23;;;;;;;;;;5044598;28;20225;-72
2023/05/31 03:54:35;;;;;;;28.50;12.98;;;;;;;;;;5025525;28;20230;-72
2023/05/31 03:57:00;;;;;;;29.95;12.48;;;;;;;;;;5028663;28;20461;-72
2023/05/31 03:59:26;;;;;;;34.17;13.27;;;;;;;;;;5043140;28;20189;-72
2023/05/31 04:01:51;;;;;;;30.77;13.10;;;;;;;;;;5039445;28;20654;-71
2023/05/31 04:04:16;;;;;;;28.67;12.40;;;;;;;;;;5010439;28;20627;-71
2023/05/31 04:06:42;;;;;;;28.40;13.82;;;;;;;;;;5017269;28;20721;-72
2023/05/31 04:09:07;;;;;;;31.20;12.45;;;;;;;;;;5022436;28;20190;-71
2023/05/31 04:11:33;;;;;;;29.95;13.27;;;;;;;;;;5024107;28;20265;-72
2023/05/31 04:13:58;;;;;;;26.98;12.68;;;;;;;;;;5027619;28;20226;-71
2023/05/31 04:16:24;;;;;;;32.88;12.82;;;;;;;;;;5026519;28;20230;-71
2023/05/31 04:18:49;;;;;;;36.45;14.35;;;;;;;;;;5029367;28;20548;-72
2023/05/31 04:21:14;;;;;;;34.33;13.73;;;;;;;;;;5029432;28;20190;-72
2023/05/31 04:23:40;;;;;;;33.85;13.25;;;;;;;;;;5019750;28;20183;-72
2023/05/31 04:26:06;;;;;;;28.25;12.80;;;;;;;;;;5016546;28;20186;-72
2023/05/31 04:28:32;;;;;;;27.90;13.05;;;;;;;;;;5015416;28;20553;-72
2023/05/31 04:30:57;;;;;;;31.17;13.18;;;;;;;;;;5032554;28;20335;-72
2023/05/31 04:33:23;;;;;;;28.60;12.70;;;;;;;;;;5033037;28;20194;-72
2023/05/31 04:35:50;;;;;;;30.63;13.65;;;;;;;;;;5028604;28;20225;-72
2023/05/31 04:38:16;;;;;;;28.00;12.93;;;;;;;;;;5023490;28;20182;-72
2023/05/31 04:40:42;;;;;;;24.85;12.02;;;;;;;;;;5026882;28;20244;-72
2023/05/31 04:43:07;;;;;;;29.48;13.25;;;;;;;;;;5024274;28;20595;-72
2023/05/31 04:45:33;;;;;;;27.10;13.50;;;;;;;;;;5019562;28;20190;-72
2023/05/31 04:47:59;;;;;;;30.30;13.60;;;;;;;;;;5027809;28;20194;-72
2023/05/31 04:50:25;;;;;;;25.42;12.55;;;;;;;;;;5028481;28;20689;-72
2023/05/31 04:52:51;;;;;;;28.65;12.95;;;;;;;;;;5025507;28;20191;-73
2023/05/31 04:55:17;;;;;;;27.38;12.10;;;;;;;;;;5028451;28;20209;-72
2023/05/31 04:57:43;;;;;;;32.17;12.57;;;;;;;;;;5021807;28;20269;-72
2023/05/31 05:00:15;;;;;;;25.35;12.95;;;;;;;;;;5025285;28;20620;-70
2023/05/31 05:02:40;;;;;;;27.02;12.27;;;;;;;;;;5014885;28;20191;-71
2023/05/31 05:05:07;;;;;;;34.03;12.52;;;;;;;;;;5023962;28;20554;-71
2023/05/31 05:07:32;;;;;;;27.83;12.48;;;;;;;;;;5025393;28;20186;-71
2023/05/31 05:09:58;;;;;;;24.27;12.68;;;;;;;;;;5026603;28;20267;-70
2023/05/31 05:12:23;;;;;;;27.73;12.18;;;;;;;;;;5018934;28;20233;-70
2023/05/31 05:14:48;;;;;;;31.30;13.75;;;;;;;;;;5025562;28;20312;-70
2023/05/31 05:17:14;;;;;;;28.88;12.55;;;;;;;;;;5020628;28;20233;-71
2023/05/31 05:19:39;;;;;;;29.52;12.63;;;;;;;;;;5027378;28;20194;-71
2023/05/31 05:22:04;;;;;;;31.50;12.98;;;;;;;;;;5029667;28;20209;-72
2023/05/31 05:24:30;;;;;;;28.08;12.88;;;;;;;;;;5020893;28;20713;-73
2023/05/31 05:26:55;;;;;;;33.17;12.88;;;;;;;;;;5026186;28;20194;-72
2023/05/31 05:29:21;;;;;;;29.48;11.90;;;;;;;;;;5031945;28;20221;-71
2023/05/31 05:31:48;;;;;;;31.08;12.57;;;;;;;;;;5029901;28;20198;-73
2023/05/31 05:34:14;;;;;;;30.15;11.88;;;;;;;;;;5042863;28;20207;-72
2023/05/31 05:36:40;;;;;;;27.10;12.48;;;;;;;;;;5041056;28;20186;-71
2023/05/31 05:39:06;;;;;;;26.73;13.55;;;;;;;;;;5033379;28;20248;-72
2023/05/31 05:41:32;;;;;;;28.45;12.43;;;;;;;;;;5016824;28;20711;-71
2023/05/31 05:43:57;;;;;;;28.25;12.50;;;;;;;;;;5028299;28;20281;-70
2023/05/31 05:46:22;;;;;;;31.42;12.57;;;;;;;;;;5027775;28;20254;-71
2023/05/31 05:48:48;;;;;;;28.00;12.68;;;;;;;;;;5027887;28;20578;-72
2023/05/31 05:51:13;;;;;;;22.13;11.05;;;;;;;;;;5047621;28;20622;-71
2023/05/31 05:53:39;;;;;;;22.65;11.43;;;;;;;;;;5032086;28;20417;-71
2023/05/31 05:56:04;;;;;;;22.90;10.27;;;;;;;;;;5013638;28;20231;-71
2023/05/31 05:58:30;;;;;;;26.48;11.75;;;;;;;;;;5030545;28;20660;-71
2023/05/31 06:00:55;;;;;;;22.75;11.15;;;;;;;;;;5029979;28;20259;-71
2023/05/31 06:03:23;;;;;;;26.48;11.30;;;;;;;;;;5027384;28;20186;-71
2023/05/31 06:05:49;;;;;;;25.48;10.45;;;;;;;;;;5021794;28;20268;-71
2023/05/31 06:08:14;;;;;;;22.52;10.68;;;;;;;;;;5018188;28;20276;-72
2023/05/31 06:10:40;;;;;;;22.13;9.80;;;;;;;;;;5010581;28;20412;-72
2023/05/31 06:13:06;;;;;;;19.80;9.85;;;;;;;;;;5038657;28;20190;-71
2023/05/31 06:15:32;;;;;;;19.95;9.85;;;;;;;;;;5008534;28;20256;-71
2023/05/31 06:17:57;;;;;;;22.67;9.57;;;;;;;;;;5020470;28;20220;-70
2023/05/31 06:20:23;;;;;;;18.42;8.45;;;;;;;;;;5028410;28;20270;-70
2023/05/31 06:22:49;;;;;;;22.67;10.23;;;;;;;;;;5024566;28;20205;-71
2023/05/31 06:25:16;;;;;;;20.75;9.45;;;;;;;;;;5028834;28;20649;-71
2023/05/31 06:27:41;;;;;;;20.67;8.63;;;;;;;;;;5021271;28;20277;-72
2023/05/31 06:30:09;;;;;;;18.75;9.55;;;;;;;;;;5031555;28;20614;-71
2023/05/31 06:32:35;;;;;;;18.00;8.68;;;;;;;;;;5017532;28;20221;-70
2023/05/31 06:35:01;;;;;;;17.33;8.80;;;;;;;;;;5026902;28;20199;-70
2023/05/31 06:37:27;;;;;;;18.27;9.27;;;;;;;;;;5025112;28;20194;-71
2023/05/31 06:39:53;;;;;;;25.25;9.20;;;;;;;;;;5011500;28;20641;-72
2023/05/31 06:42:19;;;;;;;22.67;9.85;;;;;;;;;;5011009;28;20688;-71
2023/05/31 06:44:45;;;;;;;15.48;7.85;;;;;;;;;;5017837;28;20190;-71
2023/05/31 06:47:10;;;;;;;20.20;8.45;;;;;;;;;;5026014;28;20206;-72
2023/05/31 06:49:36;;;;;;;16.77;8.55;;;;;;;;;;5021343;28;20186;-72
2023/05/31 06:52:01;;;;;;;16.50;8.15;;;;;;;;;;5025211;28;20681;-72
2023/05/31 06:54:27;;;;;;;16.30;8.57;;;;;;;;;;5026396;28;20234;-71
2023/05/31 06:56:52;;;;;;;18.63;8.27;;;;;;;;;;5014414;28;20252;-72
2023/05/31 06:59:18;;;;;;;19.08;8.77;;;;;;;;;;5027078;28;20594;-71
2023/05/31 07:01:43;;;;;;;21.20;9.43;;;;;;;;;;5019422;28;20220;-72
2023/05/31 07:04:08;;;;;;;15.68;8.95;;;;;;;;;;5018292;28;20273;-71
2023/05/31 07:06:35;;;;;;;18.00;8.45;;;;;;;;;;5029650;28;20294;-72
2023/05/31 07:09:00;;;;;;;15.57;8.45;;;;;;;;;;5026768;28;20211;-73
2023/05/31 07:11:26;;;;;;;25.55;8.60;;;;;;;;;;5034552;28;20201;-70
2023/05/31 07:13:51;;;;;;;19.65;9.30;;;;;;;;;;5025762;28;20580;-69
2023/05/31 07:16:17;;;;;;;15.60;8.55;;;;;;;;;;5021936;28;20190;-70
2023/05/31 07:18:42;;;;;;;14.10;8.32;;;;;;;;;;5030337;28;20239;-70
2023/05/31 07:21:08;;;;;;;20.80;8.85;;;;;;;;;;5018493;28;20198;-71
2023/05/31 07:23:34;;;;;;;17.58;7.85;;;;;;;;;;5019430;28;20190;-69
2023/05/31 07:26:00;;;;;;;14.77;8.52;;;;;;;;;;5033042;28;20205;-70
2023/05/31 07:28:26;;;;;;;15.95;8.25;;;;;;;;;;5024065;28;20198;-69
2023/05/31 07:30:51;;;;;;;15.63;7.85;;;;;;;;;;5037567;28;20538;-69
2023/05/31 07:33:17;;;;;;;17.25;8.20;;;;;;;;;;5024554;28;20226;-70
2023/05/31 07:35:43;;;;;;;15.00;7.72;;;;;;;;;;5024375;28;20185;-69
2023/05/31 07:38:09;;;;;;;15.43;7.88;;;;;;;;;;5032003;28;20190;-67
2023/05/31 07:40:34;;;;;;;17.55;8.15;;;;;;;;;;5012790;28;20238;-70
2023/05/31 07:43:00;;;;;;;18.85;8.23;;;;;;;;;;5026375;28;20189;-69
2023/05/31 07:45:25;;;;;;;15.70;7.30;;;;;;;;;;5026470;28;20190;-69
2023/05/31 07:47:52;;;;;;;19.73;7.78;;;;;;;;;;5022532;28;20182;-69
2023/05/31 07:50:18;;;;;;;21.33;8.25;;;;;;;;;;5028869;28;20557;-70
2023/05/31 07:52:46;;;;;;;12.65;7.05;;;;;;;;;;5029892;28;20194;-69
2023/05/31 07:55:12;;;;;;;17.35;7.15;;;;;;;;;;5027531;28;20243;-68
2023/05/31 07:57:38;;;;;;;15.30;7.43;;;;;;;;;;5017905;28;20186;-68
2023/05/31 08:00:05;;;;;;;12.65;6.65;;;;;;;;;;5025229;28;20216;-69
2023/05/31 08:02:30;;;;;;;15.07;7.00;;;;;;;;;;5018410;28;20204;-71
2023/05/31 08:04:59;;;;;;;14.68;7.32;;;;;;;;;;5023898;28;20643;-69
2023/05/31 08:07:25;;;;;;;14.57;6.70;;;;;;;;;;5019790;28;20193;-70
2023/05/31 08:09:51;;;;;;;15.35;6.93;;;;;;;;;;5026406;28;20194;-69
2023/05/31 08:12:16;;;;;;;12.18;7.10;;;;;;;;;;5035075;28;20245;-70
2023/05/31 08:14:41;;;;;;;14.35;7.45;;;;;;;;;;5013583;28;20249;-70
2023/05/31 08:17:07;;;;;;;16.10;6.82;;;;;;;;;;5041596;28;20209;-70
2023/05/31 08:19:32;;;;;;;16.70;7.13;;;;;;;;;;5028522;28;20288;-69
2023/05/31 08:21:58;;;;;;;15.45;6.82;;;;;;;;;;5007097;28;20183;-69
2023/05/31 08:24:23;;;;;;;15.77;7.18;;;;;;;;;;5027286;28;20606;-68
2023/05/31 08:26:50;;;;;;;15.13;7.68;;;;;;;;;;5039260;28;20613;-68
2023/05/31 08:29:15;;;;;;;10.85;5.95;;;;;;;;;;5021689;28;20284;-70
2023/05/31 08:31:41;;;;;;;15.88;7.13;;;;;;;;;;5037587;28;20308;-69
2023/05/31 08:34:06;;;;;;;13.00;6.30;;;;;;;;;;5026165;28;20690;-71
2023/05/31 08:36:31;;;;;;;11.32;6.75;;;;;;;;;;5034358;28;20205;-69
2023/05/31 08:38:57;;;;;;;11.10;6.25;;;;;;;;;;5020843;28;20227;-70
2023/05/31 08:41:23;;;;;;;17.58;5.72;;;;;;;;;;5028783;28;20186;-70
2023/05/31 08:43:49;;;;;;;11.88;6.63;;;;;;;;;;5032743;28;20182;-68
2023/05/31 08:46:15;;;;;;;12.77;6.20;;;;;;;;;;5029073;28;20191;-69
2023/05/31 08:48:56;;;;;;;16.38;6.47;;;;;;;;;;5030642;28;20190;-70
2023/05/31 08:51:24;;;;;;;17.90;6.57;;;;;;;;;;5030883;28;20209;-69
2023/05/31 08:53:51;;;;;;;16.05;6.63;;;;;;;;;;5041554;28;20202;-70
2023/05/31 08:56:18;;;;;;;14.70;6.40;;;;;;;;;;5029580;28;20228;-69
2023/05/31 08:58:48;;;;;;;13.95;6.25;;;;;;;;;;5030488;28;20192;-68
2023/05/31 09:01:14;;;;;;;13.57;6.28;;;;;;;;;;5025894;28;20298;-68
2023/05/31 09:03:40;;;;;;;14.00;5.75;;;;;;;;;;5038320;28;20320;-69
2023/05/31 09:06:05;;;;;;;10.45;5.32;;;;;;;;;;5027556;28;20195;-70
2023/05/31 09:08:33;;;;;;;13.07;5.78;;;;;;;;;;5024259;28;20256;-69
2023/05/31 09:11:00;;;;;;;11.52;5.22;;;;;;;;;;5019258;28;20551;-70
2023/05/31 09:13:26;;;;;;;12.93;5.97;;;;;;;;;;5026074;28;20256;-72
2023/05/31 09:15:52;;;;;;;13.93;5.57;;;;;;;;;;5029460;28;20213;-72
2023/05/31 09:18:23;;;;;;;11.75;5.82;;;;;;;;;;5028027;28;20178;-72
2023/05/31 09:20:49;;;;;;;14.63;5.93;;;;;;;;;;5024702;28;20200;-69
2023/05/31 09:23:17;;;;;;;10.57;5.10;;;;;;;;;;5031404;28;20242;-70
2023/05/31 09:25:52;;;;;;;13.13;5.57;;;;;;;;;;5030957;28;20668;-73
2023/05/31 09:28:20;;;;;;;9.02;4.97;;;;;;;;;;5013666;28;20210;-72
2023/05/31 09:30:45;;;;;;;10.48;5.03;;;;;;;;;;5037223;28;20273;-69
2023/05/31 09:33:13;;;;;;;13.95;5.00;;;;;;;;;;5043710;28;20581;-71
2023/05/31 09:35:55;;;;;;;9.70;4.80;;;;;;;;;;5031961;28;20226;-70
2023/05/31 09:38:32;;;;;;;12.02;5.38;;;;;;;;;;5026357;28;20584;-71
2023/05/31 09:41:20;;;;;;;14.77;5.30;;;;;;;;;;5029318;28;20602;-72
2023/05/31 09:43:50;;;;;;;8.75;4.90;;;;;;;;;;5020190;28;20179;-69
2023/05/31 09:46:20;;;;;;;11.75;4.90;;;;;;;;;;5013488;28;20666;-69
2023/05/31 09:49:00;;;;;;;10.40;4.35;;;;;;;;;;5019426;28;20178;-70
2023/05/31 09:51:26;;;;;;;14.65;4.82;;;;;;;;;;5027731;28;20225;-71
2023/05/31 09:53:55;;;;;;;13.35;4.93;;;;;;;;;;5023353;28;20206;-71
2023/05/31 09:56:22;;;;;;;9.23;3.95;;;;;;;;;;5040603;28;20196;-71
2023/05/31 09:58:49;;;;;;;10.32;4.10;;;;;;;;;;5029243;28;20262;-70
2023/05/31 10:01:15;;;;;;;10.38;4.60;;;;;;;;;;5017654;28;20698;-70
2023/05/31 10:03:43;;;;;;;9.23;4.35;;;;;;;;;;5022997;28;20194;-72
2023/05/31 10:06:08;;;;;;;11.27;3.85;;;;;;;;;;5025924;28;20224;-71
2023/05/31 10:08:34;;;;;;;11.63;4.10;;;;;;;;;;5032002;28;20214;-71
2023/05/31 10:11:01;;;;;;;8.00;3.63;;;;;;;;;;5023991;28;20224;-71
2023/05/31 10:13:28;;;;;;;11.18;4.13;;;;;;;;;;5035270;28;20186;-70
2023/05/31 10:15:56;;;;;;;8.43;4.05;;;;;;;;;;5040031;28;20684;-69
2023/05/31 10:18:27;;;;;;;12.95;4.80;;;;;;;;;;5023524;28;20179;-71
2023/05/31 10:20:58;;;;;;;9.40;4.68;;;;;;;;;;5009317;28;20206;-72
2023/05/31 10:23:25;;;;;;;11.63;3.90;;;;;;;;;;5028685;28;20181;-71
2023/05/31 10:26:06;;;;;;;12.15;4.07;;;;;;;;;;5027529;28;20638;-71
2023/05/31 10:28:44;;;;;;;11.23;4.03;;;;;;;;;;5029256;28;20534;-73
2023/05/31 10:31:11;;;;;;;10.52;3.20;;;;;;;;;;5040098;28;20273;-70
2023/05/31 10:33:39;;;;;;;11.43;3.67;;;;;;;;;;5007197;28;20213;-71
2023/05/31 10:36:05;;;;;;;10.73;3.38;;;;;;;;;;5032799;28;20186;-70
2023/05/31 10:38:38;;;;;;;8.10;3.70;;;;;;;;;;5013223;28;20183;-69
2023/05/31 10:41:13;;;;;;;8.85;3.55;;;;;;;;;;5021106;28;20186;-68
2023/05/31 10:43:44;;;;;;;8.85;3.60;;;;;;;;;;5026942;28;20193;-68
2023/05/31 10:46:18;;;;;;;10.25;3.42;;;;;;;;;;5028363;28;20223;-72
2023/05/31 10:48:50;;;;;;;8.05;2.97;;;;;;;;;;5043830;28;20189;-71
2023/05/31 10:51:16;;;;;;;13.93;3.95;;;;;;;;;;5025638;28;20677;-70
2023/05/31 10:53:45;;;;;;;11.15;3.65;;;;;;;;;;5018764;28;20190;-70
2023/05/31 10:56:13;;;;;;;12.82;3.40;;;;;;;;;;5027278;28;20647;-70
2023/05/31 10:58:47;;;;;;;8.90;3.30;;;;;;;;;;5013255;28;20190;-71
2023/05/31 11:01:14;;;;;;;9.60;3.28;;;;;;;;;;5037156;28;20744;-70
2023/05/31 11:03:50;;;;;;;9.38;3.55;;;;;;;;;;5022813;28;20655;-70
2023/05/31 11:06:22;;;;;;;11.77;3.65;;;;;;;;;;5009036;28;20230;-71
2023/05/31 11:09:11;;;;;;;9.63;3.78;;;;;;;;;;5021121;28;20195;-71
2023/05/31 11:11:37;;;;;;;8.73;3.58;;;;;;;;;;5023579;28;20197;-70
2023/05/31 11:14:16;;;;;;;8.35;3.33;;;;;;;;;;5020392;28;20218;-71
2023/05/31 11:16:45;;;;;;;10.32;3.58;;;;;;;;;;5026765;28;20653;-71
2023/05/31 11:19:16;;;;;;;12.52;3.80;;;;;;;;;;5027337;28;20185;-71
2023/05/31 11:21:53;;;;;;;9.70;3.80;;;;;;;;;;5026097;28;20573;-72
2023/05/31 11:24:51;;;;;;;8.98;3.97;;;;;;;;;;5021062;28;20181;-71
2023/05/31 11:27:18;;;;;;;8.63;3.28;;;;;;;;;;5015650;28;20194;-70
2023/05/31 11:29:44;;;;;;;8.80;3.40;;;;;;;;;;5033359;28;20239;-70
2023/05/31 11:32:13;;;;;;;10.23;3.65;;;;;;;;;;5039592;28;20194;-70
2023/05/31 11:34:49;;;;;;;10.93;3.58;;;;;;;;;;5024574;28;20202;-70
2023/05/31 11:37:15;;;;;;;8.70;3.47;;;;;;;;;;5024178;28;20202;-69
2023/05/31 11:39:44;;;;;;;7.45;3.88;;;;;;;;;;5021753;28;20234;-73
2023/05/31 11:42:10;;;;;;;8.40;3.67;;;;;;;;;;5017842;28;20625;-71
2023/05/31 11:44:41;;;;;;;11.70;3.45;;;;;;;;;;5023708;28;20257;-72
2023/05/31 11:47:10;;;;;;;8.88;3.92;;;;;;;;;;5017340;28;20213;-71
2023/05/31 11:49:35;;;;;;;9.80;4.05;;;;;;;;;;5026461;28;20255;-68
2023/05/31 11:52:02;;;;;;;9.02;3.70;;;;;;;;;;5024087;28;20646;-69
2023/05/31 11:54:30;;;;;;;11.70;3.50;;;;;;;;;;5016851;28;20221;-69
2023/05/31 11:57:09;;;;;;;7.47;3.30;;;;;;;;;;5014329;28;20186;-70
2023/05/31 11:59:35;;;;;;;9.20;3.55;;;;;;;;;;5017738;28;20661;-70
2023/05/31 12:02:02;;;;;;;8.15;3.22;;;;;;;;;;5013834;28;20550;-69
2023/05/31 12:04:32;;;;;;;8.63;3.75;;;;;;;;;;5018772;28;20195;-69
2023/05/31 12:06:58;;;;;;;6.90;3.58;;;;;;;;;;5009329;28;20190;-70
2023/05/31 12:09:24;;;;;;;8.45;3.35;;;;;;;;;;5021371;28;20190;-69
2023/05/31 12:11:50;;;;;;;12.48;3.13;;;;;;;;;;5013229;28;20677;-70
2023/05/31 12:14:15;;;;;;;8.82;3.30;;;;;;;;;;5026917;28;20210;-69
2023/05/31 12:16:41;;;;;;;8.52;3.00;;;;;;;;;;5041174;28;20194;-69
2023/05/31 12:19:16;;;;;;;7.72;3.30;;;;;;;;;;5020342;28;20507;-69
2023/05/31 12:21:42;;;;;;;7.85;3.50;;;;;;;;;;5014874;28;20189;-69
2023/05/31 12:24:15;;;;;;;10.88;3.47;;;;;;;;;;5025244;28;20186;-69
2023/05/31 12:26:45;;;;;;;9.07;3.72;;;;;;;;;;5011950;28;20187;-69
2023/05/31 12:29:12;;;;;;;9.30;3.10;;;;;;;;;;5018682;28;20187;-69
2023/05/31 12:31:38;;;;;;;6.25;2.97;;;;;;;;;;5031589;28;20688;-70
2023/05/31 12:34:11;;;;;;;9.38;3.40;;;;;;;;;;5044733;28;20205;-70
2023/05/31 12:36:42;;;;;;;7.95;3.30;;;;;;;;;;5024132;28;20221;-70
2023/05/31 12:39:19;;;;;;;9.23;3.50;;;;;;;;;;5035195;28;20221;-70
2023/05/31 12:41:45;;;;;;;5.65;3.05;;;;;;;;;;5031212;28;20190;-70
2023/05/31 12:44:22;;;;;;;8.77;3.60;;;;;;;;;;5030908;28;20182;-70
2023/05/31 12:46:49;;;;;;;8.43;3.40;;;;;;;;;;5030678;28;20665;-70
2023/05/31 12:49:30;;;;;;;8.52;3.53;;;;;;;;;;5031116;28;20228;-69
2023/05/31 12:52:02;;;;;;;9.07;3.50;;;;;;;;;;5037178;28;20631;-69
2023/05/31 12:54:32;;;;;;;7.32;3.28;;;;;;;;;;5031280;28;20259;-69
2023/05/31 12:57:01;;;;;;;7.63;3.15;;;;;;;;;;5031376;28;20193;-70
2023/05/31 12:59:28;;;;;;;7.25;3.67;;;;;;;;;;5022807;28;20195;-69
2023/05/31 13:01:54;;;;;;;10.70;3.50;;;;;;;;;;5029218;28;20267;-71
2023/05/31 13:04:19;;;;;;;7.65;3.00;;;;;;;;;;5024583;28;20210;-70
2023/05/31 13:06:45;;;;;;;4.65;2.75;;;;;;;;;;5022042;28;20260;-70
2023/05/31 13:09:10;;;;;;;8.93;3.25;;;;;;;;;;5014635;28;20569;-70
2023/05/31 13:11:37;;;;;;;6.65;3.47;;;;;;;;;;5020003;28;20662;-67
2023/05/31 13:14:04;;;;;;;6.15;3.25;;;;;;;;;;5035213;28;20260;-70
2023/05/31 13:16:33;;;;;;;7.20;3.17;;;;;;;;;;5028690;28;20873;-68
2023/05/31 13:18:59;;;;;;;9.05;3.17;;;;;;;;;;5038867;28;20209;-71
2023/05/31 13:21:24;;;;;;;9.48;3.60;;;;;;;;;;5025581;28;20193;-69
2023/05/31 13:23:50;;;;;;;7.80;3.63;;;;;;;;;;5033073;28;20189;-70
2023/05/31 13:26:16;;;;;;;7.60;3.50;;;;;;;;;;5028598;28;20252;-71
2023/05/31 13:28:41;;;;;;;8.43;3.85;;;;;;;;;;5019046;28;20612;-70
2023/05/31 13:31:06;;;;;;;8.85;3.58;;;;;;;;;;5034679;28;20190;-70
2023/05/31 13:33:32;;;;;;;7.15;3.10;;;;;;;;;;5025917;28;20228;-70
2023/05/31 13:35:58;;;;;;;7.72;3.22;;;;;;;;;;5023917;28;20209;-69
2023/05/31 13:38:23;;;;;;;6.80;3.33;;;;;;;;;;5029862;28;20672;-69
2023/05/31 13:40:52;;;;;;;6.05;3.13;;;;;;;;;;5024642;28;20284;-69
2023/05/31 13:43:23;;;;;;;7.65;3.00;;;;;;;;;;5041616;28;20273;-70
2023/05/31 13:45:48;;;;;;;7.60;3.10;;;;;;;;;;5029541;28;20201;-69
2023/05/31 13:48:14;;;;;;;8.15;3.67;;;;;;;;;;5016935;28;20646;-70
2023/05/31 13:50:40;;;;;;;6.28;3.60;;;;;;;;;;5019306;28;20561;-69
2023/05/31 13:53:05;;;;;;;7.72;3.30;;;;;;;;;;5026209;28;20249;-70
2023/05/31 13:55:31;;;;;;;10.40;3.42;;;;;;;;;;5026960;28;20765;-69
2023/05/31 13:57:56;;;;;;;8.00;3.45;;;;;;;;;;5033705;28;20186;-69
2023/05/31 14:00:22;;;;;;;4.63;2.83;;;;;;;;;;5026618;28;20285;-70
2023/05/31 14:02:47;;;;;;;6.43;3.40;;;;;;;;;;5024770;28;20194;-69
2023/05/31 14:05:12;;;;;;;5.90;3.03;;;;;;;;;;5021437;28;20255;-68
2023/05/31 14:07:38;;;;;;;8.05;3.58;;;;;;;;;;5019866;28;20360;-68
2023/05/31 14:10:05;;;;;;;9.20;3.28;;;;;;;;;;5027169;28;20189;-69
2023/05/31 14:12:31;;;;;;;6.85;3.80;;;;;;;;;;5027152;28;20323;-68
2023/05/31 14:14:56;;;;;;;7.43;3.30;;;;;;;;;;5019816;28;20221;-69
2023/05/31 14:17:22;;;;;;;8.60;3.67;;;;;;;;;;5024438;28;20240;-70
2023/05/31 14:19:47;;;;;;;7.13;3.20;;;;;;;;;;5021929;28;20194;-69
2023/05/31 14:22:12;;;;;;;6.20;3.28;;;;;;;;;;5021811;28;20205;-68
2023/05/31 14:24:38;;;;;;;7.63;3.70;;;;;;;;;;5026886;28;20187;-71
2023/05/31 14:27:04;;;;;;;7.63;3.30;;;;;;;;;;5024551;28;20725;-70
2023/05/31 14:29:29;;;;;;;10.60;3.55;;;;;;;;;;5032914;28;20197;-71
2023/05/31 14:31:54;;;;;;;11.55;3.58;;;;;;;;;;5028088;28;20194;-70